createdAt,value
2022-12-07T00:01:22.981Z,100784.26
2022-12-07T00:03:51.886Z,100784.85
2022-12-07T00:06:19.715Z,100784.46
2022-12-07T00:08:47.547Z,100782.19
2022-12-07T00:11:20.507Z,100777.63
2022-12-07T00:13:51.328Z,100779.48
2022-12-07T00:16:20.312Z,100770.48
2022-12-07T00:18:47.028Z,100767.06
2022-12-07T00:21:41.037Z,100765.75
2022-12-07T00:24:08.153Z,100760.79
2022-12-07T00:26:37.682Z,100762.42
2022-12-07T00:29:18.644Z,100757.46
2022-12-07T00:31:46.112Z,100757.13
2022-12-07T00:34:15.896Z,100754.23
2022-12-07T00:36:42.944Z,100749.80
2022-12-07T00:39:10.117Z,100747.29
2022-12-07T00:41:36.869Z,100750.11
2022-12-07T00:44:03.777Z,100749.11
2022-12-07T00:46:30.886Z,100743.98
2022-12-07T00:48:57.670Z,100746.97
2022-12-07T00:51:26.037Z,100744.59
2022-12-07T00:53:53.016Z,100738.01
2022-12-07T00:56:22.898Z,100738.23
2022-12-07T00:58:57.469Z,100737.05
2022-12-07T01:01:26.814Z,100733.07
2022-12-07T01:03:53.766Z,100731.71
2022-12-07T01:06:22.356Z,100726.73
2022-12-07T01:08:49.902Z,100729.17
2022-12-07T01:11:19.918Z,100724.69
2022-12-07T01:13:49.869Z,100721.83
2022-12-07T01:16:17.521Z,100717.02
2022-12-07T01:18:47.913Z,100716.86
2022-12-07T01:21:27.027Z,100714.61
2022-12-07T01:23:54.446Z,100712.52
2022-12-07T01:26:24.422Z,100711.84
2022-12-07T01:28:51.883Z,100714.71
2022-12-07T01:31:21.583Z,100708.79
2022-12-07T01:33:53.757Z,100708.45
2022-12-07T01:36:22.026Z,100705.70
2022-12-07T01:38:52.248Z,100702.25
2022-12-07T01:41:20.221Z,100702.29
2022-12-07T01:44:14.681Z,100696.77
2022-12-07T01:46:43.907Z,100689.65
2022-12-07T01:49:15.146Z,100693.09
2022-12-07T01:51:43.978Z,100691.68
2022-12-07T01:54:13.547Z,100689.60
2022-12-07T01:56:44.660Z,100685.08
2022-12-07T01:59:11.482Z,100687.16
2022-12-07T02:01:38.239Z,100681.45
2022-12-07T02:04:06.331Z,100682.81
2022-12-07T02:06:35.893Z,100680.75
2022-12-07T02:09:02.993Z,100675.39
2022-12-07T02:11:29.620Z,100669.52
2022-12-07T02:13:56.382Z,100669.83
2022-12-07T02:16:40.331Z,100666.51
2022-12-07T02:19:37.788Z,100663.00
2022-12-07T02:22:46.325Z,100661.52
2022-12-07T02:25:31.395Z,100656.90
2022-12-07T02:28:26.703Z,100652.74
2022-12-07T02:30:59.353Z,100647.55
2022-12-07T02:33:36.007Z,100646.20
2022-12-07T02:36:12.741Z,100640.70
2022-12-07T02:38:48.686Z,100637.94
2022-12-07T02:41:36.317Z,100636.04
2022-12-07T02:44:08.414Z,100629.27
2022-12-07T02:46:42.702Z,100622.71
2022-12-07T02:49:11.126Z,100620.48
2022-12-07T02:51:44.447Z,100620.49
2022-12-07T02:54:14.250Z,100618.25
2022-12-07T02:56:43.636Z,100613.43
2022-12-07T02:59:23.145Z,100611.71
2022-12-07T03:02:11.903Z,100609.45
2022-12-07T03:05:16.551Z,100611.48
2022-12-07T03:08:00.527Z,100606.06
2022-12-07T03:10:52.140Z,100601.85
2022-12-07T03:13:25.935Z,100597.48
2022-12-07T03:16:15.603Z,100590.41
2022-12-07T03:18:57.251Z,100591.29
2022-12-07T03:21:27.503Z,100590.42
2022-12-07T03:24:00.701Z,100585.28
2022-12-07T03:26:38.916Z,100584.80
2022-12-07T03:29:13.039Z,100581.56
2022-12-07T03:31:51.796Z,100576.09
2022-12-07T03:34:31.412Z,100578.53
2022-12-07T03:37:07.952Z,100579.05
2022-12-07T03:39:41.705Z,100576.81
2022-12-07T03:42:10.030Z,100574.77
2022-12-07T03:44:37.286Z,100566.33
2022-12-07T03:47:11.324Z,100563.04
2022-12-07T03:49:40.754Z,100560.42
2022-12-07T03:52:31.201Z,100558.87
2022-12-07T03:55:19.536Z,100553.47
2022-12-07T03:57:51.340Z,100554.95
2022-12-07T04:00:19.103Z,100545.27
2022-12-07T04:02:46.102Z,100542.52
2022-12-07T04:05:12.965Z,100540.98
2022-12-07T04:07:40.951Z,100539.98
2022-12-07T04:10:08.285Z,100537.58
2022-12-07T04:12:34.900Z,100539.33
2022-12-07T04:15:01.638Z,100536.75
2022-12-07T04:17:28.255Z,100535.19
2022-12-07T04:19:55.129Z,100530.38
2022-12-07T04:22:21.855Z,100524.89
2022-12-07T04:24:48.697Z,100522.16
2022-12-07T04:27:15.747Z,100519.90
2022-12-07T04:29:42.506Z,100519.55
2022-12-07T04:32:09.540Z,100515.41
2022-12-07T04:34:36.275Z,100510.59
2022-12-07T04:37:03.010Z,100508.35
2022-12-07T04:39:32.107Z,100502.50
2022-12-07T04:42:00.446Z,100501.66
2022-12-07T04:44:28.214Z,100496.50
2022-12-07T04:46:55.924Z,100494.61
2022-12-07T04:49:23.406Z,100489.92
2022-12-07T04:51:50.295Z,100484.59
2022-12-07T04:54:17.148Z,100480.27
2022-12-07T04:56:44.237Z,100475.11
2022-12-07T04:59:12.411Z,100475.45
2022-12-07T05:01:39.421Z,100472.67
2022-12-07T05:04:06.874Z,100473.20
2022-12-07T05:06:33.752Z,100471.50
2022-12-07T05:09:00.597Z,100470.14
2022-12-07T05:11:39.321Z,100466.49
2022-12-07T05:14:18.884Z,100462.19
2022-12-07T05:16:48.270Z,100460.64
2022-12-07T05:19:15.359Z,100455.67
2022-12-07T05:21:42.104Z,100457.25
2022-12-07T05:24:12.026Z,100455.90
2022-12-07T05:26:39.230Z,100450.39
2022-12-07T05:29:06.033Z,100450.93
2022-12-07T05:31:34.495Z,100447.16
2022-12-07T05:34:01.225Z,100448.04
2022-12-07T05:36:29.101Z,100444.63
2022-12-07T05:38:55.834Z,100445.48
2022-12-07T05:41:40.690Z,100444.98
2022-12-07T05:44:07.530Z,100451.17
2022-12-07T05:46:34.520Z,100448.05
2022-12-07T05:49:01.931Z,100450.69
2022-12-07T05:51:28.708Z,100452.44
2022-12-07T05:53:55.638Z,100453.85
2022-12-07T05:56:23.277Z,100454.19
2022-12-07T05:59:08.449Z,100451.62
2022-12-07T06:01:35.046Z,100449.73
2022-12-07T06:04:01.722Z,100447.83
2022-12-07T06:06:28.520Z,100445.75
2022-12-07T06:08:55.305Z,100446.46
2022-12-07T06:11:40.620Z,100441.28
2022-12-07T06:14:07.275Z,100434.16
2022-12-07T06:16:34.019Z,100432.27
2022-12-07T06:19:00.795Z,100429.88
2022-12-07T06:21:27.487Z,100430.23
2022-12-07T06:23:54.373Z,100431.30
2022-12-07T06:26:21.256Z,100427.86
2022-12-07T06:28:47.950Z,100430.13
2022-12-07T06:31:14.732Z,100429.27
2022-12-07T06:33:41.805Z,100427.20
2022-12-07T06:36:09.052Z,100427.05
2022-12-07T06:38:36.302Z,100426.04
2022-12-07T06:41:03.085Z,100423.27
2022-12-07T06:43:30.466Z,100423.46
2022-12-07T06:45:57.143Z,100420.36
2022-12-07T06:48:23.916Z,100419.86
2022-12-07T06:50:54.717Z,100414.70
2022-12-07T06:53:22.967Z,100416.11
2022-12-07T06:55:49.927Z,100418.23
2022-12-07T06:58:17.599Z,100415.63
2022-12-07T07:00:45.218Z,100413.19
2022-12-07T07:03:12.235Z,100413.88
2022-12-07T07:05:38.938Z,100413.19
2022-12-07T07:08:21.803Z,100410.40
2022-12-07T07:10:49.444Z,100412.80
2022-12-07T07:13:16.190Z,100407.47
2022-12-07T07:15:43.040Z,100404.02
2022-12-07T07:18:09.880Z,100405.05
2022-12-07T07:20:37.574Z,100407.30
2022-12-07T07:23:04.706Z,100408.87
2022-12-07T07:25:31.799Z,100404.76
2022-12-07T07:27:58.419Z,100403.41
2022-12-07T07:30:25.547Z,100407.22
2022-12-07T07:32:52.341Z,100404.64
2022-12-07T07:35:19.738Z,100404.84
2022-12-07T07:37:46.619Z,100405.73
2022-12-07T07:40:13.293Z,100403.48
2022-12-07T07:42:39.965Z,100405.37
2022-12-07T07:45:07.131Z,100408.65
2022-12-07T07:47:33.818Z,100410.20
2022-12-07T07:50:01.280Z,100407.27
2022-12-07T07:52:28.243Z,100406.76
2022-12-07T07:54:54.802Z,100407.98
2022-12-07T07:57:21.488Z,100402.99
2022-12-07T07:59:48.178Z,100402.67
2022-12-07T08:02:19.987Z,100401.13
2022-12-07T08:04:47.227Z,100406.31
2022-12-07T08:07:15.000Z,100401.65
2022-12-07T08:09:42.098Z,100403.21
2022-12-07T08:12:08.992Z,100398.73
2022-12-07T08:14:35.692Z,100403.91
2022-12-07T08:17:02.889Z,100403.40
2022-12-07T08:19:29.623Z,100403.91
2022-12-07T08:21:56.956Z,100409.10
2022-12-07T08:24:25.657Z,100410.81
2022-12-07T08:26:52.806Z,100406.69
2022-12-07T08:29:19.821Z,100407.88
2022-12-07T08:31:46.760Z,100405.64
2022-12-07T08:34:14.251Z,100409.45
2022-12-07T08:36:41.709Z,100413.95
2022-12-07T08:39:30.995Z,100410.85
2022-12-07T08:41:55.153Z,100414.30
2022-12-07T08:44:21.891Z,100412.41
2022-12-07T08:46:54.520Z,100412.41
2022-12-07T08:49:36.056Z,100410.15
2022-12-07T08:52:05.568Z,100407.35
2022-12-07T08:54:36.107Z,100408.73
2022-12-07T08:57:03.852Z,100402.35
2022-12-07T08:59:31.142Z,100401.14
2022-12-07T09:01:57.915Z,100399.62
2022-12-07T09:04:24.732Z,100397.21
2022-12-07T09:06:51.644Z,100393.59
2022-12-07T09:09:18.345Z,100393.25
2022-12-07T09:11:45.655Z,100393.77
2022-12-07T09:14:13.308Z,100392.41
2022-12-07T09:16:40.793Z,100388.27
2022-12-07T09:19:08.656Z,100387.24
2022-12-07T09:21:35.381Z,100382.77
2022-12-07T09:24:02.177Z,100382.78
2022-12-07T09:26:28.918Z,100382.63
2022-12-07T09:28:55.566Z,100383.33
2022-12-07T09:31:24.412Z,100379.89
2022-12-07T09:34:00.770Z,100383.37
2022-12-07T09:36:29.699Z,100383.73
2022-12-07T09:38:56.334Z,100380.27
2022-12-07T09:41:25.775Z,100376.48
2022-12-07T09:43:58.700Z,100380.83
2022-12-07T09:46:25.327Z,100378.73
2022-12-07T09:48:52.217Z,100374.23
2022-12-07T09:51:24.201Z,100372.15
2022-12-07T09:53:57.766Z,100367.30
2022-12-07T09:56:25.400Z,100370.94
2022-12-07T09:59:03.164Z,100368.68
2022-12-07T10:01:32.921Z,100369.02
2022-12-07T10:04:10.126Z,100367.97
2022-12-07T10:06:36.767Z,100370.73
2022-12-07T10:09:13.839Z,100371.42
2022-12-07T10:12:02.254Z,100374.17
2022-12-07T10:14:58.956Z,100376.23
2022-12-07T10:17:32.407Z,100379.67
2022-12-07T10:20:20.831Z,100378.27
2022-12-07T10:23:01.460Z,100379.65
2022-12-07T10:25:33.098Z,100373.60
2022-12-07T10:28:17.386Z,100372.58
2022-12-07T10:30:52.436Z,100370.84
2022-12-07T10:33:50.238Z,100368.24
2022-12-07T10:36:22.338Z,100371.67
2022-12-07T10:38:53.105Z,100372.35
2022-12-07T10:41:20.530Z,100370.11
2022-12-07T10:43:49.628Z,100373.74
2022-12-07T10:46:44.337Z,100371.83
2022-12-07T10:49:32.359Z,100371.09
2022-12-07T10:52:18.664Z,100372.98
2022-12-07T10:55:16.526Z,100364.84
2022-12-07T10:57:48.211Z,100358.24
2022-12-07T11:00:25.791Z,100354.44
2022-12-07T11:03:20.013Z,100352.19
2022-12-07T11:06:07.240Z,100351.98
2022-12-07T11:08:42.880Z,100344.89
2022-12-07T11:11:28.664Z,100348.54
2022-12-07T11:14:14.144Z,100349.20
2022-12-07T11:17:23.895Z,100347.61
2022-12-07T11:20:13.258Z,100342.02
2022-12-07T11:22:56.084Z,100340.45
2022-12-07T11:25:31.776Z,100338.04
2022-12-07T11:28:35.979Z,100337.87
2022-12-07T11:31:27.325Z,100335.95
2022-12-07T11:34:08.611Z,100334.90
2022-12-07T11:36:42.179Z,100340.23
2022-12-07T11:39:21.393Z,100336.60
2022-12-07T11:41:53.538Z,100333.66
2022-12-07T11:45:01.619Z,100330.36
2022-12-07T11:47:54.602Z,100331.16
2022-12-07T11:50:48.070Z,100327.52
2022-12-07T11:53:39.339Z,100325.80
2022-12-07T11:56:11.894Z,100321.52
2022-12-07T11:59:05.126Z,100313.43
2022-12-07T12:01:33.801Z,100309.96
2022-12-07T12:04:07.724Z,100303.76
2022-12-07T12:06:35.886Z,100301.88
2022-12-07T12:15:37.291Z,100300.80
2022-12-07T12:18:20.518Z,100294.69
2022-12-07T12:21:01.136Z,100294.86
2022-12-07T12:23:42.418Z,100290.88
2022-12-07T12:26:19.423Z,100292.94
2022-12-07T12:29:36.033Z,100288.81
2022-12-07T12:32:25.393Z,100288.25
2022-12-07T12:35:33.499Z,100290.34
2022-12-07T12:38:20.397Z,100288.23
2022-12-07T12:40:50.994Z,100287.52
2022-12-07T12:43:48.074Z,100285.13
2022-12-07T12:46:50.374Z,100284.43
2022-12-07T12:49:20.305Z,100287.18
2022-12-07T12:51:50.722Z,100286.68
2022-12-07T12:54:26.031Z,100278.55
2022-12-07T12:57:07.923Z,100281.85
2022-12-07T12:59:40.261Z,100277.72
2022-12-07T13:02:22.727Z,100279.10
2022-12-07T13:04:54.048Z,100274.80
2022-12-07T13:07:54.659Z,100268.23
2022-12-07T13:10:24.681Z,100269.25
2022-12-07T13:13:15.752Z,100268.20
2022-12-07T13:15:51.343Z,100269.73
2022-12-07T13:18:30.309Z,100267.32
2022-12-07T13:21:09.657Z,100262.84
2022-12-07T13:23:38.408Z,100259.92
2022-12-07T13:26:17.730Z,100256.98
2022-12-07T13:28:46.689Z,100254.92
2022-12-07T13:31:35.711Z,100249.76
2022-12-07T13:34:26.304Z,100249.58
2022-12-07T13:36:53.109Z,100249.05
2022-12-07T13:39:25.911Z,100251.65
2022-12-07T13:41:55.801Z,100250.98
2022-12-07T13:44:23.913Z,100248.39
2022-12-07T13:47:00.319Z,100248.75
2022-12-07T13:49:32.456Z,100247.36
2022-12-07T13:52:18.143Z,100248.23
2022-12-07T13:54:50.593Z,100240.96
2022-12-07T13:57:18.184Z,100238.73
2022-12-07T13:59:46.007Z,100237.36
2022-12-07T14:02:21.786Z,100239.63
2022-12-07T14:04:51.214Z,100235.64
2022-12-07T14:07:29.435Z,100235.31
2022-12-07T14:09:59.027Z,100232.17
2022-12-07T14:12:27.121Z,100227.67
2022-12-07T14:14:55.470Z,100231.64
2022-12-07T14:17:25.058Z,100235.11
2022-12-07T14:19:59.008Z,100235.48
2022-12-07T14:22:38.110Z,100237.20
2022-12-07T14:25:13.562Z,100236.47
2022-12-07T14:27:49.082Z,100237.15
2022-12-07T14:30:18.482Z,100231.28
2022-12-07T14:32:49.098Z,100230.59
2022-12-07T14:35:17.999Z,100230.41
2022-12-07T14:37:47.188Z,100228.98
2022-12-07T14:40:16.812Z,100230.38
2022-12-07T14:42:45.066Z,100226.92
2022-12-07T14:45:16.011Z,100226.06
2022-12-07T14:50:30.134Z,100229.00
2022-12-07T14:55:48.428Z,100221.40
2022-12-07T14:58:16.810Z,100226.06
2022-12-07T15:00:44.427Z,100220.55
2022-12-07T15:03:13.395Z,100219.86
2022-12-07T15:05:41.386Z,100217.95
2022-12-07T15:08:12.780Z,100217.61
2022-12-07T15:10:40.487Z,100213.45
2022-12-07T15:13:26.513Z,100215.16
2022-12-07T15:15:54.279Z,100212.89
2022-12-07T15:18:22.259Z,100213.24
2022-12-07T15:20:48.951Z,100212.19
2022-12-07T15:23:15.770Z,100211.52
2022-12-07T15:25:43.723Z,100213.23
2022-12-07T15:28:10.440Z,100213.40
2022-12-07T15:30:38.357Z,100213.92
2022-12-07T15:33:04.994Z,100213.58
2022-12-07T15:35:31.668Z,100210.98
2022-12-07T15:37:58.244Z,100214.27
2022-12-07T15:40:24.862Z,100213.95
2022-12-07T15:42:51.469Z,100214.48
2022-12-07T15:45:18.517Z,100212.73
2022-12-07T15:50:32.198Z,100205.80
2022-12-07T15:52:58.862Z,100207.20
2022-12-07T15:55:25.482Z,100207.72
2022-12-07T15:57:52.223Z,100207.23
2022-12-07T16:00:19.561Z,100208.80
2022-12-07T16:02:46.458Z,100212.63
2022-12-07T16:05:13.225Z,100211.23
2022-12-07T16:07:39.873Z,100210.71
2022-12-07T16:10:07.347Z,100209.14
2022-12-07T16:12:34.003Z,100206.89
2022-12-07T16:15:00.878Z,100200.86
2022-12-07T16:17:27.830Z,100200.36
2022-12-07T16:19:54.576Z,100201.23
2022-12-07T16:22:21.422Z,100200.20
2022-12-07T16:24:48.190Z,100197.25
2022-12-07T16:27:15.144Z,100194.62
2022-12-07T16:29:41.946Z,100198.59
2022-12-07T16:32:08.610Z,100194.95
2022-12-07T16:34:35.617Z,100197.73
2022-12-07T16:37:04.329Z,100199.64
2022-12-07T16:39:32.148Z,100195.51
2022-12-07T16:41:58.833Z,100187.90
2022-12-07T16:44:25.678Z,100190.30
2022-12-07T16:46:52.393Z,100188.24
2022-12-07T16:49:19.485Z,100182.89
2022-12-07T16:52:03.123Z,100180.13
2022-12-07T16:54:36.533Z,100177.31
2022-12-07T16:57:03.336Z,100169.88
2022-12-07T16:59:30.496Z,100173.13
2022-12-07T17:01:57.085Z,100175.33
2022-12-07T17:04:23.819Z,100174.42
2022-12-07T17:06:50.596Z,100172.66
2022-12-07T17:09:21.171Z,100169.69
2022-12-07T17:11:48.726Z,100172.40
2022-12-07T17:14:34.263Z,100175.30
2022-12-07T17:17:01.310Z,100174.38
2022-12-07T17:19:27.947Z,100172.98
2022-12-07T17:21:54.581Z,100174.55
2022-12-07T17:24:21.217Z,100172.31
2022-12-07T17:26:48.073Z,100170.77
2022-12-07T17:29:16.921Z,100169.56
2022-12-07T17:31:49.513Z,100172.67
2022-12-07T17:34:18.815Z,100173.70
2022-12-07T17:36:45.564Z,100171.46
2022-12-07T17:39:16.302Z,100169.56
2022-12-07T17:42:01.786Z,100166.27
2022-12-07T17:44:28.824Z,100164.50
2022-12-07T17:46:59.319Z,100161.73
2022-12-07T17:49:26.805Z,100162.05
2022-12-07T17:52:12.609Z,100160.84
2022-12-07T17:54:39.383Z,100162.89
2022-12-07T17:57:06.179Z,100165.30
2022-12-07T17:59:32.927Z,100163.78
2022-12-07T18:01:59.658Z,100161.23
2022-12-07T18:04:26.431Z,100159.02
2022-12-07T18:06:53.076Z,100163.20
2022-12-07T18:09:21.453Z,100157.00
2022-12-07T18:11:48.017Z,100160.95
2022-12-07T18:14:16.111Z,100160.40
2022-12-07T18:16:43.181Z,100160.22
2022-12-07T18:19:12.963Z,100157.83
2022-12-07T18:21:40.735Z,100156.47
2022-12-07T18:24:10.472Z,100159.40
2022-12-07T18:26:37.797Z,100164.23
2022-12-07T18:29:06.708Z,100165.10
2022-12-07T18:31:34.989Z,100163.56
2022-12-07T18:34:04.767Z,100167.00
2022-12-07T18:36:31.611Z,100168.02
2022-12-07T18:38:58.276Z,100169.91
2022-12-07T18:41:24.920Z,100171.80
2022-12-07T18:43:51.726Z,100171.80
2022-12-07T18:46:20.743Z,100174.21
2022-12-07T18:48:49.734Z,100171.79
2022-12-07T18:51:17.626Z,100171.59
2022-12-07T18:53:44.631Z,100168.64
2022-12-07T18:56:14.352Z,100161.56
2022-12-07T18:59:00.133Z,100158.96
2022-12-07T19:01:27.443Z,100157.71
2022-12-07T19:03:54.212Z,100152.19
2022-12-07T19:06:20.819Z,100155.48
2022-12-07T19:08:47.484Z,100152.67
2022-12-07T19:11:41.196Z,100151.98
2022-12-07T19:14:07.893Z,100151.93
2022-12-07T19:16:34.874Z,100154.48
2022-12-07T19:19:01.747Z,100154.65
2022-12-07T19:21:28.562Z,100151.38
2022-12-07T19:23:55.715Z,100156.70
2022-12-07T19:26:22.818Z,100158.09
2022-12-07T19:28:50.309Z,100163.60
2022-12-07T19:31:17.182Z,100167.02
2022-12-07T19:33:43.957Z,100164.25
2022-12-07T19:36:10.818Z,100160.10
2022-12-07T19:38:37.387Z,100162.34
2022-12-07T19:41:32.506Z,100165.46
2022-12-07T19:44:00.444Z,100164.05
2022-12-07T19:46:27.616Z,100168.37
2022-12-07T19:48:54.551Z,100169.05
2022-12-07T19:51:21.754Z,100167.64
2022-12-07T19:53:48.383Z,100169.89
2022-12-07T19:56:17.172Z,100171.42
2022-12-07T19:58:43.912Z,100170.21
2022-12-07T20:01:11.433Z,100167.96
2022-12-07T20:03:38.084Z,100171.06
2022-12-07T20:06:13.555Z,100174.86
2022-12-07T20:08:41.108Z,100177.07
2022-12-07T20:11:26.521Z,100175.65
2022-12-07T20:13:53.724Z,100181.48
2022-12-07T20:16:21.295Z,100186.13
2022-12-07T20:18:51.623Z,100190.61
2022-12-07T20:21:21.224Z,100192.85
2022-12-07T20:23:47.809Z,100191.80
2022-12-07T20:26:14.602Z,100191.64
2022-12-07T20:28:45.751Z,100196.69
2022-12-07T20:31:14.694Z,100194.77
2022-12-07T20:33:45.878Z,100198.56
2022-12-07T20:36:15.380Z,100197.88
2022-12-07T20:38:43.603Z,100199.23
2022-12-07T20:41:31.185Z,100204.08
2022-12-07T20:43:58.947Z,100201.23
2022-12-07T20:46:26.304Z,100204.15
2022-12-07T20:48:53.431Z,100205.86
2022-12-07T20:51:20.288Z,100207.95
2022-12-07T20:53:46.938Z,100209.17
2022-12-07T20:56:27.089Z,100211.08
2022-12-07T20:58:55.262Z,100212.92
2022-12-07T21:01:22.221Z,100213.27
2022-12-07T21:03:49.039Z,100213.96
2022-12-07T21:06:17.508Z,100211.70
2022-12-07T21:08:49.500Z,100215.83
2022-12-07T21:11:18.006Z,100221.86
2022-12-07T21:13:45.401Z,100225.31
2022-12-07T21:16:24.381Z,100226.34
2022-12-07T21:18:51.433Z,100232.36
2022-12-07T21:21:19.348Z,100234.60
2022-12-07T21:23:48.519Z,100235.13
2022-12-07T21:26:18.977Z,100235.15
2022-12-07T21:28:46.245Z,100236.89
2022-12-07T21:31:14.110Z,100239.50
2022-12-07T21:33:43.462Z,100237.48
2022-12-07T21:36:12.596Z,100238.90
2022-12-07T21:38:39.383Z,100237.02
2022-12-07T21:41:12.731Z,100237.05
2022-12-07T21:43:39.549Z,100240.66
2022-12-07T21:46:06.710Z,100240.16
2022-12-07T21:48:33.670Z,100243.83
2022-12-07T21:51:13.818Z,100243.70
2022-12-07T21:53:42.614Z,100239.06
2022-12-07T21:56:23.984Z,100240.27
2022-12-07T21:58:52.051Z,100240.08
2022-12-07T22:01:26.930Z,100234.86
2022-12-07T22:03:54.341Z,100243.11
2022-12-07T22:06:23.957Z,100247.59
2022-12-07T22:08:51.503Z,100245.98
2022-12-07T22:11:18.860Z,100250.63
2022-12-07T22:14:09.889Z,100257.49
2022-12-07T22:16:37.725Z,100252.08
2022-12-07T22:19:05.801Z,100255.87
2022-12-07T22:21:33.463Z,100257.94
2022-12-07T22:24:00.278Z,100265.70
2022-12-07T22:26:27.246Z,100265.36
2022-12-07T22:28:54.089Z,100262.61
2022-12-07T22:31:21.834Z,100264.67
2022-12-07T22:33:49.119Z,100260.84
2022-12-07T22:36:16.044Z,100266.99
2022-12-07T22:38:43.170Z,100271.06
2022-12-07T22:41:17.874Z,100271.34
2022-12-07T22:43:44.892Z,100270.63
2022-12-07T22:46:11.556Z,100275.96
2022-12-07T22:48:38.248Z,100277.84
2022-12-07T22:51:04.986Z,100280.23
2022-12-07T22:53:31.724Z,100279.23
2022-12-07T22:55:58.455Z,100277.81
2022-12-07T22:58:25.086Z,100280.20
2022-12-07T23:00:54.498Z,100276.38
2022-12-07T23:03:21.193Z,100273.77
2022-12-07T23:05:49.066Z,100271.19
2022-12-07T23:08:16.689Z,100272.05
2022-12-07T23:10:48.013Z,100273.61
2022-12-07T23:13:32.389Z,100271.55
2022-12-07T23:16:01.158Z,100272.20
2022-12-07T23:18:28.011Z,100276.00
2022-12-07T23:20:57.843Z,100275.53
2022-12-07T23:23:25.124Z,100279.67
2022-12-07T23:25:52.298Z,100280.32
2022-12-07T23:28:19.394Z,100281.16
2022-12-07T23:30:46.287Z,100283.92
2022-12-07T23:33:13.132Z,100281.34
2022-12-07T23:35:39.753Z,100283.55
2022-12-07T23:38:06.374Z,100285.07
2022-12-07T23:40:33.047Z,100287.98
2022-12-07T23:42:59.679Z,100283.80
2022-12-07T23:45:26.374Z,100283.29
2022-12-07T23:47:53.054Z,100287.89
2022-12-07T23:50:19.794Z,100296.97
2022-12-07T23:52:46.442Z,100298.16
2022-12-07T23:55:13.170Z,100296.95
2022-12-07T23:57:39.814Z,100300.36
